• Join FlightAware (Why Join?)
  • Login
  • US Flag 
01:22AM EDT


 

Airport Tracker/Info


-or-


 

Live Flight TrackerFlight Track Log ✈ JEX1789 ✈ 05-Jul-2013 ✈ RJTT / HND - RJFO / OIT

Flight Track Log - Related Links

Times and Time Zones

All times are in EDT time to prevent confusion due to time zone crossing. See the JEX1789 flight status page for this flight to view local times or setup timezone preferences in your user account.

Time Position Orientation Groundspeed Altitude Reporting Facility
EDT Latitude Longitude Course Direction KTS MPH feet Rate Location/Type
01:53AM 35.4710 139.4113 255° West  Level Estimated
01:54AM 35.4436 139.2886 255° West  Level Estimated
01:55AM 35.4161 139.1660 255° West  Level Estimated
01:56AM 35.3885 139.0436 255° West  Level Estimated
01:57AM 35.3608 138.9212 255° West  Level Estimated
01:58AM 35.3330 138.7989 254° West  Level Estimated
01:59AM 35.3050 138.6766 254° West  Level Estimated
02:00AM 35.2769 138.5545 254° West  Level Estimated
02:01AM 35.2487 138.4324 254° West  Level Estimated
02:02AM 35.2204 138.3105 254° West  Level Estimated
02:03AM 35.1919 138.1886 254° West  Level Estimated
02:04AM 35.1633 138.0668 254° West  Level Estimated
02:05AM 35.1346 137.9451 254° West  Level Estimated
02:06AM 35.1054 137.8216 254° West  Level Estimated
02:07AM 35.0760 137.6982 254° West  Level Estimated
02:08AM 35.0465 137.5749 254° West  Level Estimated
02:09AM 35.0169 137.4517 254° West  Level Estimated
02:10AM 34.9871 137.3286 254° West  Level Estimated
02:11AM 34.9572 137.2056 254° West  Level Estimated
02:12AM 34.9272 137.0826 253° West  Level Estimated
02:13AM 34.8971 136.9598 253° West  Level Estimated
02:14AM 34.8668 136.8370 253° West  Level Estimated
02:15AM 34.8364 136.7144 253° West  Level Estimated
02:16AM 34.8060 136.5918 253° West  Level Estimated
02:17AM 34.7748 136.4674 253° West  Level Estimated
02:18AM 34.7436 136.3431 253° West  Level Estimated
02:19AM 34.7123 136.2190 253° West  Level Estimated
02:20AM 34.6808 136.0949 253° West  Level Estimated
02:21AM 34.6492 135.9709 253° West  Level Estimated
02:22AM 34.6175 135.8470 253° West  Level Estimated
02:23AM 34.5856 135.7232 253° West  Level Estimated
02:24AM 34.5537 135.5995 253° West  Level Estimated
02:25AM 34.5216 135.4759 253° West  Level Estimated
02:26AM 34.4893 135.3524 252° West  Level Estimated
02:27AM 34.4570 135.2289 252° West  Level Estimated
02:28AM 34.4245 135.1056 252° West  Level Estimated
02:29AM 34.3919 134.9824 252° West  Level Estimated
02:30AM 34.3592 134.8593 252° West  Level Estimated
02:31AM 34.3264 134.7362 252° West  Level Estimated
02:32AM 34.2934 134.6133 252° West  Level Estimated
02:33AM 34.2603 134.4904 252° West  Level Estimated
02:34AM 34.2271 134.3677 252° West  Level Estimated
02:35AM 34.1938 134.2450 252° West  Level Estimated
02:36AM 34.1603 134.1225 252° West  Level Estimated
02:37AM 34.1267 134.0000 252° West  Level Estimated
02:38AM 34.0936 133.8795 252° West  Level Estimated
02:39AM 34.0602 133.7591 252° West  Level Estimated
02:40AM 34.0268 133.6388 252° West  Level Estimated
02:41AM 33.9933 133.5186 251° West  Level Estimated
02:42AM 33.9596 133.3985 251° West  Level Estimated
02:43AM 33.9259 133.2784 251° West  Level Estimated
02:44AM 33.8920 133.1585 251° West  Level Estimated
02:45AM 33.8580 133.0387 251° West  Level Estimated
02:46AM 33.8239 132.9189 251° West  Level Estimated
02:47AM 33.7896 132.7993 251° West  Level Estimated
02:48AM 33.7553 132.6797 251° West  Level Estimated
02:49AM 33.7208 132.5603 251° West  Level Estimated
02:50AM 33.6862 132.4409 251° West  Level Estimated
02:51AM 33.6515 132.3217 251° West  Level Estimated
02:52AM 33.6167 132.2025 251° West  Level Estimated
02:53AM 33.5818 132.0834 251° West  Level Estimated
02:54AM 33.5467 131.9644 251° West  Level Estimated
02:55AM 33.5116 131.8456 251° West  Level Estimated
02:56AM 33.4794 131.7372 250° West  Level Estimated
02:57AM 33.4794 131.7372 23° Northeast  Level Estimated
02:58AM 33.4794 131.7372 23° Northeast  Level Estimated
02:59AM 33.4794 131.7372 23° Northeast  Level Estimated
03:00AM 33.4794 131.7372 23° Northeast  Level Estimated
03:01AM 33.4794 131.7372 23° Northeast  Level Estimated
03:02AM 33.4794 131.7372 23° Northeast  Level Estimated
03:03AM 33.4794 131.7372 23° Northeast  Level Estimated
03:04AM 33.4794 131.7372 23° Northeast  Level Estimated
03:05AM 33.4794 131.7372 23° Northeast  Level Estimated
03:06AM 33.4794 131.7372 23° Northeast  Level Estimated
03:07AM 33.4794 131.7372 23° Northeast  Level Estimated
03:08AM 33.4794 131.7372 23° Northeast  Level Estimated
03:09AM 33.4794 131.7372 23° Northeast  Level Estimated